createdAt,value
2023-02-25T00:00:34.514Z,4.12
2023-02-25T00:03:05.959Z,4.14
2023-02-25T00:05:40.900Z,4.10
2023-02-25T00:08:12.245Z,4.11
2023-02-25T00:10:43.509Z,4.10
2023-02-25T00:13:18.438Z,4.11
2023-02-25T00:15:49.886Z,4.04
2023-02-25T00:18:21.340Z,4.13
2023-02-25T00:20:52.704Z,4.08
2023-02-25T00:23:24.322Z,4.15
2023-02-25T00:26:06.694Z,4.14
2023-02-25T00:28:39.982Z,4.13
2023-02-25T00:31:17.313Z,3.92
2023-02-25T00:33:49.441Z,3.93
2023-02-25T00:36:24.283Z,3.89
2023-02-25T00:38:57.359Z,3.83
2023-02-25T00:41:30.684Z,3.77
2023-02-25T00:44:02.230Z,3.83
2023-02-25T00:46:34.123Z,3.85
2023-02-25T00:49:05.468Z,3.88
2023-02-25T00:51:38.422Z,3.72
2023-02-25T00:54:09.720Z,3.87
2023-02-25T00:56:40.986Z,3.78
2023-02-25T00:59:12.246Z,3.68
2023-02-25T01:01:43.971Z,3.65
2023-02-25T01:04:15.328Z,3.65
2023-02-25T01:06:46.685Z,3.64
2023-02-25T01:09:18.023Z,3.59
2023-02-25T01:11:50.224Z,3.63
2023-02-25T01:14:24.592Z,3.66
2023-02-25T01:17:01.936Z,3.63
2023-02-25T01:19:33.240Z,3.58
2023-02-25T01:22:04.596Z,3.56
2023-02-25T01:24:35.909Z,3.53
2023-02-25T01:27:07.406Z,3.48
2023-02-25T01:29:40.383Z,3.51
2023-02-25T01:32:14.133Z,3.58
2023-02-25T01:34:45.511Z,3.64
2023-02-25T01:37:17.143Z,3.69
2023-02-25T01:39:48.417Z,3.71
2023-02-25T01:42:20.041Z,3.77
2023-02-25T01:45:21.924Z,3.80
2023-02-25T01:47:58.771Z,3.80
2023-02-25T01:50:41.879Z,3.79
2023-02-25T01:53:15.271Z,3.82
2023-02-25T01:55:46.908Z,3.83
2023-02-25T01:58:18.665Z,3.82
2023-02-25T02:00:55.469Z,3.82
2023-02-25T02:03:31.709Z,3.84
2023-02-25T02:06:09.511Z,3.83
2023-02-25T02:08:44.124Z,3.81
2023-02-25T02:11:15.726Z,3.69
2023-02-25T02:13:51.054Z,3.80
2023-02-25T02:16:56.591Z,3.81
2023-02-25T02:19:39.544Z,3.78
2023-02-25T02:22:24.064Z,3.78
2023-02-25T02:25:36.791Z,3.79
2023-02-25T02:29:05.480Z,3.79
2023-02-25T02:31:50.519Z,3.69
2023-02-25T02:34:40.923Z,3.76
2023-02-25T02:37:26.269Z,3.75
2023-02-25T02:40:36.472Z,3.72
2023-02-25T02:43:31.519Z,3.68
2023-02-25T02:46:14.859Z,3.63
2023-02-25T02:48:58.865Z,3.55
2023-02-25T02:51:37.970Z,3.57
2023-02-25T02:54:13.962Z,3.39
2023-02-25T02:56:49.092Z,3.39
2023-02-25T02:59:35.079Z,3.49
2023-02-25T03:02:14.100Z,3.43
2023-02-25T03:04:50.045Z,3.44
2023-02-25T03:07:23.086Z,3.26
2023-02-25T03:10:00.617Z,3.28
2023-02-25T03:12:32.255Z,3.37
2023-02-25T03:15:03.610Z,3.35
2023-02-25T03:17:46.905Z,3.18
2023-02-25T03:20:35.484Z,3.15
2023-02-25T03:23:12.705Z,3.10
2023-02-25T03:25:48.429Z,3.16
2023-02-25T03:28:30.557Z,3.09
2023-02-25T03:31:09.050Z,2.93
2023-02-25T03:33:51.511Z,2.84
2023-02-25T03:36:36.438Z,2.89
2023-02-25T03:39:14.322Z,2.74
2023-02-25T03:41:48.794Z,2.84
2023-02-25T03:44:28.366Z,2.82
2023-02-25T03:47:00.923Z,2.84
2023-02-25T03:49:40.894Z,2.67
2023-02-25T03:52:15.572Z,2.75
2023-02-25T03:54:55.324Z,2.84
2023-02-25T03:57:35.246Z,2.84
2023-02-25T04:00:22.610Z,2.66
2023-02-25T04:02:54.138Z,2.78
2023-02-25T04:05:29.383Z,2.78
2023-02-25T04:08:00.653Z,2.50
2023-02-25T04:10:33.333Z,2.78
2023-02-25T04:13:05.831Z,2.78
2023-02-25T04:15:37.906Z,2.73
2023-02-25T04:18:09.422Z,2.74
2023-02-25T04:20:40.993Z,2.67
2023-02-25T04:23:14.543Z,2.65
2023-02-25T04:25:45.829Z,2.73
2023-02-25T04:28:17.535Z,2.64
2023-02-25T04:30:49.044Z,2.77
2023-02-25T04:33:20.441Z,2.76
2023-02-25T04:35:52.008Z,2.72
2023-02-25T04:38:23.346Z,2.72
2023-02-25T04:40:54.734Z,2.60
2023-02-25T04:43:26.062Z,2.59
2023-02-25T04:45:57.334Z,2.67
2023-02-25T04:48:28.596Z,2.72
2023-02-25T04:51:03.486Z,2.63
2023-02-25T04:53:34.948Z,2.76
2023-02-25T04:56:07.908Z,2.73
2023-02-25T04:58:39.811Z,2.72
2023-02-25T05:01:11.519Z,2.74
2023-02-25T05:03:43.033Z,2.73
2023-02-25T05:06:14.369Z,2.64
2023-02-25T05:08:45.642Z,2.44
2023-02-25T05:11:17.968Z,2.59
2023-02-25T05:13:49.323Z,2.59
2023-02-25T05:16:20.876Z,2.72
2023-02-25T05:18:53.061Z,2.73
2023-02-25T05:21:26.512Z,2.63
2023-02-25T05:23:57.783Z,2.72
2023-02-25T05:26:29.262Z,2.71
2023-02-25T05:29:00.659Z,2.74
2023-02-25T05:31:32.178Z,2.75
2023-02-25T05:34:03.577Z,2.76
2023-02-25T05:36:34.852Z,2.75
2023-02-25T05:39:06.499Z,2.79
2023-02-25T05:41:38.857Z,2.78
2023-02-25T05:44:11.640Z,2.75
2023-02-25T05:46:43.013Z,2.79
2023-02-25T05:49:14.283Z,2.71
2023-02-25T05:51:45.572Z,2.82
2023-02-25T05:54:16.997Z,2.84
2023-02-25T05:56:51.924Z,2.83
2023-02-25T05:59:23.248Z,2.83
2023-02-25T06:01:54.605Z,2.83
2023-02-25T06:04:25.913Z,2.75
2023-02-25T06:06:57.205Z,2.68
2023-02-25T06:09:29.060Z,2.88
2023-02-25T06:12:00.696Z,2.89
2023-02-25T06:14:31.980Z,2.88
2023-02-25T06:17:03.298Z,2.82
2023-02-25T06:19:34.561Z,2.79
2023-02-25T06:22:05.848Z,2.86
2023-02-25T06:24:37.281Z,2.85
2023-02-25T06:27:08.595Z,2.80
2023-02-25T06:29:41.700Z,2.85
2023-02-25T06:32:13.820Z,2.87
2023-02-25T06:34:45.286Z,2.83
2023-02-25T06:37:16.583Z,2.89
2023-02-25T06:39:47.866Z,2.43
2023-02-25T06:42:19.214Z,2.94
2023-02-25T06:44:50.496Z,2.91
2023-02-25T06:47:22.890Z,2.73
2023-02-25T06:49:54.141Z,2.54
2023-02-25T06:52:25.439Z,2.56
2023-02-25T06:54:56.764Z,2.44
2023-02-25T06:57:28.039Z,2.54
2023-02-25T06:59:59.350Z,2.44
2023-02-25T07:02:30.825Z,2.38
2023-02-25T07:05:02.848Z,2.22
2023-02-25T07:07:34.252Z,2.15
2023-02-25T07:10:06.390Z,2.13
2023-02-25T07:12:37.710Z,2.08
2023-02-25T07:15:09.599Z,1.94
2023-02-25T07:17:40.971Z,2.02
2023-02-25T07:20:12.511Z,2.04
2023-02-25T07:22:43.823Z,2.09
2023-02-25T07:25:15.150Z,2.14
2023-02-25T07:27:46.836Z,2.17
2023-02-25T07:30:18.342Z,2.20
2023-02-25T07:32:49.651Z,2.20
2023-02-25T07:35:21.023Z,2.23
2023-02-25T07:37:52.291Z,2.26
2023-02-25T07:40:23.631Z,2.27
2023-02-25T07:42:54.920Z,2.28
2023-02-25T07:45:26.206Z,2.26
2023-02-25T07:47:57.536Z,2.29
2023-02-25T07:50:28.852Z,2.34
2023-02-25T07:53:00.156Z,2.36
2023-02-25T07:55:31.448Z,2.42
2023-02-25T07:58:02.746Z,2.45
2023-02-25T08:00:34.013Z,2.43
2023-02-25T08:03:05.591Z,2.24
2023-02-25T08:05:38.143Z,2.31
2023-02-25T08:08:09.420Z,2.07
2023-02-25T08:10:40.753Z,2.18
2023-02-25T08:13:12.057Z,2.34
2023-02-25T08:15:44.178Z,2.41
2023-02-25T08:18:15.545Z,2.34
2023-02-25T08:20:47.475Z,2.49
2023-02-25T08:23:19.589Z,2.44
2023-02-25T08:25:55.260Z,2.53
2023-02-25T08:28:30.526Z,2.61
2023-02-25T08:31:06.311Z,2.68
2023-02-25T08:33:39.792Z,2.79
2023-02-25T08:36:16.020Z,2.88
2023-02-25T08:38:47.605Z,2.97
2023-02-25T08:41:21.177Z,3.00
2023-02-25T08:43:54.898Z,3.04
2023-02-25T08:46:29.271Z,2.84
2023-02-25T08:49:01.157Z,3.09
2023-02-25T08:51:35.996Z,3.12
2023-02-25T08:54:11.837Z,3.20
2023-02-25T08:56:44.301Z,3.25
2023-02-25T08:59:16.617Z,3.18
2023-02-25T09:01:49.201Z,3.33
2023-02-25T09:04:23.617Z,3.32
2023-02-25T09:06:55.060Z,3.20
2023-02-25T09:09:26.443Z,3.38
2023-02-25T09:11:57.864Z,3.32
2023-02-25T09:14:29.166Z,3.39
2023-02-25T09:17:03.965Z,3.33
2023-02-25T09:19:38.711Z,3.49
2023-02-25T09:22:10.426Z,3.52
2023-02-25T09:24:41.769Z,3.44
2023-02-25T09:27:13.075Z,3.59
2023-02-25T09:29:44.347Z,3.53
2023-02-25T09:32:20.821Z,3.51
2023-02-25T09:34:52.726Z,3.42
2023-02-25T09:37:25.601Z,3.45
2023-02-25T09:39:57.415Z,3.33
2023-02-25T09:42:44.155Z,3.34
2023-02-25T09:45:18.020Z,3.43
2023-02-25T09:48:23.096Z,3.47
2023-02-25T09:51:03.747Z,3.48
2023-02-25T09:53:41.788Z,3.32
2023-02-25T09:56:17.599Z,3.45
2023-02-25T09:58:56.826Z,3.85
2023-02-25T10:01:42.326Z,4.09
2023-02-25T10:04:41.457Z,4.10
2023-02-25T10:07:24.377Z,4.11
2023-02-25T10:10:02.401Z,4.16
2023-02-25T10:12:52.618Z,3.96
2023-02-25T10:15:34.149Z,4.00
2023-02-25T10:18:30.040Z,4.01
2023-02-25T10:21:24.217Z,4.03
2023-02-25T10:24:03.770Z,4.11
2023-02-25T10:26:39.409Z,4.01
2023-02-25T10:29:28.147Z,4.06
2023-02-25T10:32:12.182Z,4.15
2023-02-25T10:34:43.959Z,4.02
2023-02-25T10:37:37.499Z,4.01
2023-02-25T10:40:14.957Z,4.06
2023-02-25T10:42:49.234Z,4.10
2023-02-25T10:45:25.605Z,4.20
2023-02-25T10:48:11.288Z,4.37
2023-02-25T10:50:46.128Z,4.48
2023-02-25T10:53:18.442Z,4.28
2023-02-25T10:55:52.183Z,4.15
2023-02-25T10:58:57.948Z,4.01
2023-02-25T11:01:36.482Z,3.56
2023-02-25T11:04:14.984Z,3.72
2023-02-25T11:06:47.676Z,3.59
2023-02-25T11:09:19.007Z,3.57
2023-02-25T11:12:08.820Z,3.56
2023-02-25T11:14:40.323Z,3.57
2023-02-25T11:17:20.270Z,3.57
2023-02-25T11:20:02.274Z,3.47
2023-02-25T11:22:42.967Z,3.65
2023-02-25T11:25:20.384Z,3.57
2023-02-25T11:27:58.797Z,3.64
2023-02-25T11:30:38.971Z,3.61
2023-02-25T11:33:25.797Z,3.58
2023-02-25T11:35:59.757Z,3.53
2023-02-25T11:38:42.331Z,3.34
2023-02-25T11:41:23.670Z,3.57
2023-02-25T11:43:55.253Z,3.79
2023-02-25T11:46:31.114Z,4.10
2023-02-25T11:49:22.076Z,4.39
2023-02-25T11:52:25.953Z,4.57
2023-02-25T11:54:57.303Z,4.57
2023-02-25T11:57:41.024Z,4.49
2023-02-25T12:00:19.186Z,4.41
2023-02-25T12:03:34.795Z,4.38
2023-02-25T12:06:32.221Z,4.26
2023-02-25T12:09:25.390Z,4.34
2023-02-25T12:12:37.845Z,4.54
2023-02-25T12:15:34.471Z,4.65
2023-02-25T12:18:44.853Z,4.66
2023-02-25T12:21:44.731Z,4.63
2023-02-25T12:24:31.152Z,4.49
2023-02-25T12:27:08.384Z,4.38
2023-02-25T12:30:06.979Z,4.34
2023-02-25T12:33:14.791Z,4.35
2023-02-25T12:36:03.719Z,4.49
2023-02-25T12:39:02.916Z,4.70
2023-02-25T12:41:46.529Z,4.89
2023-02-25T12:44:20.628Z,4.84
2023-02-25T12:47:04.274Z,4.82
2023-02-25T12:50:06.750Z,4.67
2023-02-25T12:52:50.187Z,4.43
2023-02-25T12:55:59.799Z,4.42
2023-02-25T12:59:06.130Z,4.61
2023-02-25T13:01:50.441Z,4.79
2023-02-25T13:04:45.163Z,4.77
2023-02-25T13:07:31.830Z,4.74
2023-02-25T13:10:25.167Z,4.70
2023-02-25T13:13:21.634Z,4.75
2023-02-25T13:16:38.599Z,4.98
2023-02-25T13:19:15.966Z,5.21
2023-02-25T13:22:17.939Z,5.36
2023-02-25T13:25:10.985Z,5.38
2023-02-25T13:27:57.944Z,5.26
2023-02-25T13:30:41.508Z,5.28
2023-02-25T13:33:28.032Z,5.14
2023-02-25T13:36:09.483Z,5.02
2023-02-25T13:39:02.865Z,5.03
2023-02-25T13:42:00.947Z,5.19
2023-02-25T13:45:14.171Z,5.36
2023-02-25T13:48:22.225Z,5.34
2023-02-25T13:51:24.642Z,5.11
2023-02-25T13:54:23.102Z,5.05
2023-02-25T13:57:32.195Z,5.05
2023-02-25T14:00:09.636Z,5.10
2023-02-25T14:03:04.768Z,5.14
2023-02-25T14:06:03.612Z,5.10
2023-02-25T14:09:04.609Z,4.88
2023-02-25T14:12:06.372Z,4.75
2023-02-25T14:15:04.667Z,4.79
2023-02-25T14:18:10.779Z,4.82
2023-02-25T14:21:24.295Z,4.97
2023-02-25T14:24:08.957Z,5.16
2023-02-25T14:27:04.605Z,5.09
2023-02-25T14:30:12.031Z,4.75
2023-02-25T14:33:01.285Z,4.66
2023-02-25T14:35:33.851Z,4.77
2023-02-25T14:38:08.609Z,4.89
2023-02-25T14:40:53.272Z,5.10
2023-02-25T14:43:29.692Z,5.16
2023-02-25T14:46:29.945Z,5.34
2023-02-25T14:49:26.799Z,5.50
2023-02-25T14:52:28.691Z,5.38
2023-02-25T14:55:34.455Z,5.12
2023-02-25T14:58:30.585Z,4.63
2023-02-25T15:01:38.619Z,4.29
2023-02-25T15:04:47.543Z,4.28
2023-02-25T15:07:40.683Z,4.27
2023-02-25T15:10:14.877Z,4.16
2023-02-25T15:13:17.012Z,4.01
2023-02-25T15:16:11.855Z,3.73
2023-02-25T15:19:01.944Z,3.66
2023-02-25T15:21:41.567Z,3.65
2023-02-25T15:24:37.967Z,3.86
2023-02-25T15:27:37.440Z,4.09
2023-02-25T15:30:14.514Z,4.14
2023-02-25T15:32:49.648Z,4.17
2023-02-25T15:35:49.592Z,4.10
2023-02-25T15:38:39.066Z,3.97
2023-02-25T15:41:28.745Z,3.72
2023-02-25T15:44:12.224Z,3.42
2023-02-25T15:46:45.904Z,2.95
2023-02-25T15:49:22.165Z,3.02
2023-02-25T15:52:04.910Z,3.01
2023-02-25T15:54:36.182Z,3.05
2023-02-25T15:57:10.233Z,3.04
2023-02-25T15:59:55.305Z,2.98
2023-02-25T16:02:26.745Z,2.95
2023-02-25T16:05:11.739Z,2.95
2023-02-25T16:08:06.991Z,2.83
2023-02-25T16:10:49.176Z,3.04
2023-02-25T16:13:27.136Z,2.97
2023-02-25T16:16:00.560Z,2.96
2023-02-25T16:18:36.824Z,2.84
2023-02-25T16:21:22.793Z,2.71
2023-02-25T16:23:54.686Z,2.58
2023-02-25T16:26:44.058Z,2.47
2023-02-25T16:29:33.655Z,2.43
2023-02-25T16:32:23.442Z,2.38
2023-02-25T16:35:06.818Z,2.29
2023-02-25T16:38:00.312Z,2.19
2023-02-25T16:40:37.566Z,2.14
2023-02-25T16:43:14.149Z,2.06
2023-02-25T16:45:57.277Z,1.79
2023-02-25T16:48:32.739Z,1.88
2023-02-25T16:51:10.370Z,1.71
2023-02-25T16:53:44.485Z,1.77
2023-02-25T16:56:28.912Z,1.73
2023-02-25T16:59:16.381Z,1.73
2023-02-25T17:01:56.829Z,1.68
2023-02-25T17:04:38.074Z,1.67
2023-02-25T17:07:14.398Z,1.66
2023-02-25T17:09:49.383Z,1.52
2023-02-25T17:12:30.941Z,1.58
2023-02-25T17:15:09.333Z,1.58
2023-02-25T17:17:43.075Z,1.49
2023-02-25T17:20:23.394Z,1.43
2023-02-25T17:22:56.572Z,1.39
2023-02-25T17:25:34.056Z,1.35
2023-02-25T17:28:07.548Z,1.31
2023-02-25T17:30:48.170Z,1.26
2023-02-25T17:33:28.039Z,1.24
2023-02-25T17:36:08.515Z,1.19
2023-02-25T17:38:41.915Z,1.12
2023-02-25T17:41:21.068Z,1.05
2023-02-25T17:43:53.098Z,1.11
2023-02-25T17:46:49.607Z,1.14
2023-02-25T17:49:22.957Z,1.10
2023-02-25T17:51:57.207Z,1.04
2023-02-25T17:54:32.447Z,1.16
2023-02-25T17:57:08.722Z,1.09
2023-02-25T17:59:42.410Z,0.99
2023-02-25T18:02:22.812Z,1.05
2023-02-25T18:05:12.487Z,0.98
2023-02-25T18:07:47.560Z,0.94
2023-02-25T18:10:31.106Z,0.93
2023-02-25T18:13:04.804Z,0.88
2023-02-25T18:15:36.195Z,0.84
2023-02-25T18:18:18.491Z,0.70
2023-02-25T18:20:49.914Z,0.71
2023-02-25T18:23:25.146Z,0.71
2023-02-25T18:26:19.001Z,0.70
2023-02-25T18:28:52.209Z,0.63
2023-02-25T18:31:23.755Z,0.65
2023-02-25T18:33:55.097Z,0.61
2023-02-25T18:36:28.098Z,0.64
2023-02-25T18:39:03.808Z,0.56
2023-02-25T18:41:35.138Z,0.59
2023-02-25T18:44:13.164Z,0.57
2023-02-25T18:46:44.425Z,0.55
2023-02-25T18:49:15.840Z,0.49
2023-02-25T18:51:49.284Z,0.48
2023-02-25T18:54:20.596Z,0.48
2023-02-25T18:56:52.216Z,0.33
2023-02-25T18:59:23.543Z,0.49
2023-02-25T19:01:54.945Z,0.39
2023-02-25T19:04:26.355Z,0.41
2023-02-25T19:06:57.630Z,0.44
2023-02-25T19:09:28.954Z,0.45
2023-02-25T19:12:00.307Z,0.45
2023-02-25T19:14:31.651Z,0.48
2023-02-25T19:17:03.435Z,0.52
2023-02-25T19:19:34.749Z,0.56
2023-02-25T19:22:06.074Z,0.65
2023-02-25T19:24:37.528Z,0.71
2023-02-25T19:27:30.062Z,0.77
2023-02-25T19:30:02.573Z,0.81
2023-02-25T19:32:33.933Z,0.78
2023-02-25T19:35:06.349Z,0.79
2023-02-25T19:37:39.970Z,0.92
2023-02-25T19:40:15.347Z,1.00
2023-02-25T19:42:46.982Z,1.00
2023-02-25T19:45:20.844Z,1.02
2023-02-25T19:47:54.630Z,0.95
2023-02-25T19:50:26.981Z,0.89
2023-02-25T19:52:58.452Z,0.95
2023-02-25T19:55:30.203Z,0.91
2023-02-25T19:58:02.066Z,0.86
2023-02-25T20:00:33.442Z,0.78
2023-02-25T20:03:04.999Z,0.61
2023-02-25T20:05:36.295Z,0.58
2023-02-25T20:08:08.512Z,0.44
2023-02-25T20:10:42.647Z,0.49
2023-02-25T20:13:14.783Z,0.34
2023-02-25T20:15:46.110Z,0.30
2023-02-25T20:18:17.499Z,0.26
2023-02-25T20:20:48.788Z,0.31
2023-02-25T20:23:20.090Z,0.13
2023-02-25T20:25:51.486Z,0.32
2023-02-25T20:28:23.927Z,0.27
2023-02-25T20:31:07.115Z,0.38
2023-02-25T20:33:39.273Z,0.29
2023-02-25T20:36:23.502Z,0.53
2023-02-25T20:39:25.246Z,0.63
2023-02-25T20:41:56.800Z,0.62
2023-02-25T20:44:28.194Z,0.61
2023-02-25T20:46:59.628Z,0.74
2023-02-25T20:49:31.074Z,0.76
2023-02-25T20:52:02.722Z,0.72
2023-02-25T20:54:34.079Z,0.83
2023-02-25T20:57:05.481Z,0.74
2023-02-25T20:59:36.861Z,0.67
2023-02-25T21:02:09.450Z,0.40
2023-02-25T21:04:40.813Z,0.43
2023-02-25T21:07:12.946Z,0.21
2023-02-25T21:09:44.383Z,0.15
2023-02-25T21:12:15.686Z,0.23
2023-02-25T21:14:47.038Z,0.10
2023-02-25T21:17:18.496Z,0.05
2023-02-25T21:19:49.789Z,-0.17
2023-02-25T21:22:21.810Z,-0.13
2023-02-25T21:24:53.256Z,-0.20
2023-02-25T21:27:25.932Z,-0.16
2023-02-25T21:29:57.210Z,-0.17
2023-02-25T21:32:28.530Z,-0.24
2023-02-25T21:34:59.866Z,-0.24
2023-02-25T21:37:31.342Z,-0.26
2023-02-25T21:40:04.003Z,-0.17
2023-02-25T21:42:35.952Z,-0.01
2023-02-25T21:45:09.378Z,0.09
2023-02-25T21:47:40.709Z,-0.01
2023-02-25T21:50:13.098Z,0.05
2023-02-25T21:52:44.377Z,0.00
2023-02-25T21:55:15.781Z,0.10
2023-02-25T21:57:47.128Z,0.09
2023-02-25T22:00:19.373Z,-0.09
2023-02-25T22:02:50.634Z,-0.06
2023-02-25T22:05:22.146Z,-0.15
2023-02-25T22:07:53.438Z,-0.25
2023-02-25T22:10:24.992Z,-0.30
2023-02-25T22:12:56.280Z,-0.36
2023-02-25T22:15:28.682Z,-0.40
2023-02-25T22:17:59.927Z,-0.45
2023-02-25T22:20:31.212Z,-0.61
2023-02-25T22:23:02.520Z,-0.54
2023-02-25T22:25:33.800Z,-0.58
2023-02-25T22:28:05.459Z,-0.61
2023-02-25T22:30:36.790Z,-0.63
2023-02-25T22:33:08.160Z,-0.68
2023-02-25T22:35:39.574Z,-0.72
2023-02-25T22:38:12.305Z,-0.78
2023-02-25T22:40:43.706Z,-0.82
2023-02-25T22:43:15.081Z,-0.84
2023-02-25T22:45:46.420Z,-0.87
2023-02-25T22:48:17.886Z,-0.89
2023-02-25T22:50:49.639Z,-0.91
2023-02-25T22:53:20.897Z,-0.93
2023-02-25T22:55:52.216Z,-1.02
2023-02-25T22:58:23.573Z,-1.06
2023-02-25T23:00:55.198Z,-1.01
2023-02-25T23:03:26.886Z,-1.03
2023-02-25T23:05:58.246Z,-1.07
2023-02-25T23:08:30.109Z,-1.10
2023-02-25T23:11:08.533Z,-1.13
2023-02-25T23:13:45.942Z,-1.16
2023-02-25T23:16:39.458Z,-1.16
2023-02-25T23:19:15.628Z,-1.13
2023-02-25T23:21:47.033Z,-1.14
2023-02-25T23:24:19.372Z,-1.30
2023-02-25T23:26:53.527Z,-1.15
2023-02-25T23:29:24.798Z,-1.17
2023-02-25T23:31:56.179Z,-1.19
2023-02-25T23:34:27.567Z,-1.17
2023-02-25T23:36:58.829Z,-1.16
2023-02-25T23:39:30.074Z,-1.17
2023-02-25T23:42:01.359Z,-1.17
2023-02-25T23:44:32.610Z,-1.29
2023-02-25T23:47:03.908Z,-1.20
2023-02-25T23:49:35.163Z,-1.21
2023-02-25T23:52:06.452Z,-1.28
2023-02-25T23:54:37.729Z,-1.29
2023-02-25T23:57:09.010Z,-1.24
2023-02-25T23:59:40.292Z,-1.25
